Time;durP1;ratioP1;P1;durP2;ratioP2;P2;SDS_P1;SDS_P2;PMS_P1;PMS_P2;Temp;Humidity;BMP_temperature;BMP_pressure;BME280_temperature;BME280_humidity;BME280_pressure;Samples;Min_cycle;Max_cycle;Signal;HPM_P1;HPM_P2
2023/01/09 00:01:41;;;;;;;7.00;5.93;;;;;;;9.36;99.60;96471.88;5015407;23;20241;-92
2023/01/09 00:03:44;;;;;;;7.00;6.30;;;;;;;9.35;99.96;96468.47;5015424;23;20932;-93
2023/01/09 00:05:47;;;;;;;6.97;6.28;;;;;;;9.38;99.99;96455.16;4992732;23;20222;-92
2023/01/09 00:07:52;;;;;;;6.97;6.28;;;;;;;9.40;100.00;96456.66;5015863;23;20226;-92
2023/01/09 00:09:55;;;;;;;7.03;6.43;;;;;;;9.41;99.71;96454.88;5015284;23;20186;-93
2023/01/09 00:11:58;;;;;;;8.80;7.03;;;;;;;9.39;100.00;96449.00;4990642;23;20417;-93
2023/01/09 00:14:01;;;;;;;7.00;6.40;;;;;;;9.43;99.97;96447.78;5015126;23;21269;-93
2023/01/09 00:16:04;;;;;;;7.13;6.43;;;;;;;9.44;99.39;96452.84;5014322;23;20271;-93
2023/01/09 00:18:08;;;;;;;7.90;6.90;;;;;;;9.46;99.32;96440.50;5039126;23;20183;-93
2023/01/09 00:20:12;;;;;;;7.17;6.47;;;;;;;9.48;99.58;96453.38;5040345;23;20579;-92
2023/01/09 00:22:15;;;;;;;7.10;6.40;;;;;;;9.52;99.48;96445.16;5014075;23;20557;-92
2023/01/09 00:24:19;;;;;;;7.10;6.40;;;;;;;9.57;99.94;96452.53;5014974;23;20641;-92
2023/01/09 00:26:22;;;;;;;8.50;6.82;;;;;;;9.58;99.77;96444.59;4991076;23;20590;-91
2023/01/09 00:28:26;;;;;;;7.20;6.50;;;;;;;9.60;99.56;96441.84;5014000;23;20633;-92
2023/01/09 00:30:29;;;;;;;7.53;6.83;;;;;;;9.66;99.41;96451.72;5013938;23;20585;-91
2023/01/09 00:32:32;;;;;;;7.53;6.70;;;;;;;9.70;99.44;96442.69;5039450;23;20651;-92
2023/01/09 00:34:36;;;;;;;6.73;6.03;;;;;;;9.71;98.94;96444.28;5038573;23;20595;-93
2023/01/09 00:36:39;;;;;;;7.20;6.50;;;;;;;9.73;99.28;96442.41;5014696;23;20593;-91
2023/01/09 00:38:43;;;;;;;6.80;6.10;;;;;;;9.74;98.41;96438.81;4990698;23;20549;-92
2023/01/09 00:40:47;;;;;;;6.93;6.23;;;;;;;9.76;98.50;96442.09;5014771;23;20669;-92
2023/01/09 00:42:53;;;;;;;7.77;6.30;;;;;;;9.77;98.22;96448.94;5014554;23;20586;-92
2023/01/09 00:44:58;;;;;;;7.70;6.30;;;;;;;9.77;98.45;96448.94;4991083;23;20682;-93
2023/01/09 00:47:06;;;;;;;7.50;6.40;;;;;;;9.79;98.54;96450.47;5037904;23;20612;-92
2023/01/09 00:49:10;;;;;;;6.50;5.90;;;;;;;9.81;98.48;96450.31;5014087;23;21191;-91
2023/01/09 00:51:13;;;;;;;7.20;6.50;;;;;;;9.82;97.91;96457.16;5014417;23;21160;-92
2023/01/09 00:53:19;;;;;;;6.97;6.27;;;;;;;9.84;98.03;96461.25;5014516;23;20976;-92
2023/01/09 00:55:22;;;;;;;7.17;6.47;;;;;;;9.86;98.12;96464.53;5015277;23;20641;-92
2023/01/09 00:57:27;;;;;;;6.60;5.90;;;;;;;9.88;97.77;96462.63;5014160;23;20593;-92
2023/01/09 00:59:30;;;;;;;7.00;6.00;;;;;;;9.91;98.01;96459.75;5015337;23;20624;-92
2023/01/09 01:01:33;;;;;;;7.30;6.50;;;;;;;9.91;98.29;96454.53;5014737;23;20582;-92
2023/01/09 01:03:36;;;;;;;6.83;6.10;;;;;;;9.93;98.38;96458.66;4990015;23;21229;-91
2023/01/09 01:07:59;;;;;;;6.67;6.07;;;;;;;9.94;98.48;96460.31;5014536;23;20174;-92
2023/01/09 01:10:02;;;;;;;6.87;6.13;;;;;;;9.98;97.99;96458.25;5014490;23;20592;-92
2023/01/09 01:12:05;;;;;;;6.67;6.07;;;;;;;9.93;97.93;96456.06;5038790;23;20636;-92
2023/01/09 01:14:10;;;;;;;7.37;6.20;;;;;;;9.90;97.71;96445.91;5014349;23;20627;-91
2023/01/09 01:16:14;;;;;;;6.70;5.87;;;;;;;9.91;97.78;96446.72;4990388;23;20581;-92
2023/01/09 01:18:17;;;;;;;7.83;7.03;;;;;;;9.90;98.60;96451.09;5039821;23;20612;-93
2023/01/09 01:20:20;;;;;;;8.53;6.97;;;;;;;9.92;98.25;96453.56;5039432;23;21131;-92
2023/01/09 01:22:23;;;;;;;7.07;5.90;;;;;;;9.91;98.42;96455.34;5014608;23;20673;-92
2023/01/09 01:24:26;;;;;;;6.30;5.70;;;;;;;9.91;98.53;96457.97;4991458;23;21029;-92
2023/01/09 01:26:29;;;;;;;7.70;6.00;;;;;;;9.88;98.50;96447.81;5014548;23;20592;-92
2023/01/09 01:28:32;;;;;;;5.60;4.70;;;;;;;9.87;98.11;96446.16;4990743;23;20702;-92
2023/01/09 01:30:39;;;;;;;5.03;4.53;;;;;;;9.88;98.69;96442.63;5014291;23;20672;-91
2023/01/09 01:32:42;;;;;;;6.20;5.53;;;;;;;9.89;98.62;96441.66;5014221;23;20708;-92
2023/01/09 01:34:45;;;;;;;5.97;4.80;;;;;;;9.89;98.05;96443.44;5013018;23;20585;-92
2023/01/09 01:36:49;;;;;;;6.33;5.50;;;;;;;9.89;98.35;96441.66;5014405;23;20585;-90
2023/01/09 01:38:53;;;;;;;5.72;4.95;;;;;;;9.88;98.25;96439.19;5038289;23;20632;-92
2023/01/09 01:40:56;;;;;;;4.47;3.97;;;;;;;9.86;98.39;96436.75;5039542;23;20180;-92
2023/01/09 01:42:59;;;;;;;4.90;4.27;;;;;;;9.85;98.04;96436.88;4990838;23;20590;-92
2023/01/09 01:45:06;;;;;;;4.53;4.07;;;;;;;9.86;98.84;96435.91;5013935;23;20625;-91
2023/01/09 01:47:11;;;;;;;4.27;3.50;;;;;;;9.89;98.67;96436.47;5038884;23;20576;-92
2023/01/09 01:49:19;;;;;;;3.92;3.50;;;;;;;9.89;98.46;96428.66;4990111;23;20913;-92
2023/01/09 01:51:23;;;;;;;3.00;2.70;;;;;;;9.91;98.24;96425.91;5013942;23;20185;-92
2023/01/09 01:53:31;;;;;;;3.33;2.70;;;;;;;9.92;97.51;96432.72;5039841;23;20596;-93
2023/01/09 01:55:36;;;;;;;2.97;2.63;;;;;;;9.91;98.04;96437.13;5014196;23;20680;-93
2023/01/09 01:57:41;;;;;;;2.90;2.37;;;;;;;9.92;97.69;96433.56;5014853;23;20188;-92
2023/01/09 01:59:49;;;;;;;3.00;2.67;;;;;;;9.92;98.21;96433.56;5040131;23;20583;-92
2023/01/09 02:01:53;;;;;;;2.00;1.80;;;;;;;9.92;96.93;96433.56;4990705;23;20229;-92
2023/01/09 02:04:00;;;;;;;3.00;2.53;;;;;;;9.88;96.98;96432.19;4990710;23;20613;-92
2023/01/09 02:06:03;;;;;;;2.10;1.83;;;;;;;9.84;97.27;96427.41;5015519;23;20596;-91
2023/01/09 02:08:07;;;;;;;2.30;2.07;;;;;;;9.80;96.71;96436.47;5015337;23;20934;-93
2023/01/09 02:10:10;;;;;;;2.88;2.20;;;;;;;9.77;97.60;96428.13;5037648;23;20617;-91
2023/01/09 02:12:16;;;;;;;2.60;2.00;;;;;;;9.78;97.79;96427.97;5013630;23;20202;-92
2023/01/09 02:14:20;;;;;;;1.90;1.70;;;;;;;9.82;97.00;96444.13;5013713;23;20597;-92
2023/01/09 02:16:33;;;;;;;2.07;1.80;;;;;;;9.85;97.23;96436.88;5014712;23;20660;-92
2023/01/09 02:18:45;;;;;;;1.80;1.30;;;;;;;9.83;97.61;96432.75;5041021;23;21101;-92
2023/01/09 02:20:57;;;;;;;1.90;1.53;;;;;;;9.79;97.39;96437.44;5038915;23;20587;-92
2023/01/09 02:23:14;;;;;;;1.63;1.40;;;;;;;9.77;97.72;96441.13;5039624;23;20573;-92
2023/01/09 02:25:37;;;;;;;2.07;1.50;;;;;;;9.72;97.96;96431.13;5016975;23;20585;-92
2023/01/09 02:28:06;;;;;;;2.00;1.45;;;;;;;9.66;98.47;96436.09;5015490;23;20573;-92
2023/01/09 02:30:30;;;;;;;2.28;1.77;;;;;;;9.66;98.31;96429.09;5015728;23;20288;-91
2023/01/09 02:32:43;;;;;;;2.37;1.50;;;;;;;9.65;98.02;96431.84;5038832;23;20251;-93
2023/01/09 02:34:53;;;;;;;2.67;2.15;;;;;;;9.62;98.22;96429.50;5015984;23;21117;-92
2023/01/09 02:37:02;;;;;;;1.63;1.42;;;;;;;9.59;99.27;96407.22;4991471;23;20224;-91
2023/01/09 02:39:16;;;;;;;1.65;1.40;;;;;;;9.64;99.02;96417.22;5014897;23;20271;-92
2023/01/09 02:41:23;;;;;;;2.50;1.70;;;;;;;9.65;99.48;96413.63;5039535;23;20191;-92
2023/01/09 02:43:26;;;;;;;1.70;1.40;;;;;;;9.70;99.06;96408.84;5015569;23;20588;-92
2023/01/09 02:45:31;;;;;;;1.98;1.50;;;;;;;9.72;99.24;96414.72;5039157;23;20584;-91
2023/01/09 02:47:37;;;;;;;1.90;1.52;;;;;;;9.73;99.17;96401.56;5015525;23;20185;-93
2023/01/09 02:49:43;;;;;;;2.05;1.50;;;;;;;9.76;98.82;96411.69;5015534;23;20213;-91
2023/01/09 02:51:51;;;;;;;2.33;1.60;;;;;;;9.76;99.10;96408.25;5014701;23;20181;-92
2023/01/09 02:54:09;;;;;;;2.03;1.37;;;;;;;9.76;99.00;96403.03;4991265;23;20634;-91
2023/01/09 02:56:23;;;;;;;1.52;1.20;;;;;;;9.78;98.30;96407.16;5038882;23;20675;-92
2023/01/09 02:58:41;;;;;;;1.53;1.37;;;;;;;9.80;98.69;96414.81;5016157;23;20166;-92
2023/01/09 03:00:51;;;;;;;1.47;1.23;;;;;;;9.79;98.47;96427.03;5015133;23;20585;-92
2023/01/09 03:02:58;;;;;;;1.47;1.20;;;;;;;9.77;98.42;96434.13;5016201;23;20680;-92
2023/01/09 03:05:07;;;;;;;1.70;1.20;;;;;;;9.76;98.69;96431.69;5015397;23;21030;-92
2023/01/09 03:07:14;;;;;;;1.20;1.00;;;;;;;9.79;98.20;96439.19;5041468;23;20181;-93
2023/01/09 03:09:21;;;;;;;1.40;1.10;;;;;;;9.77;98.67;96430.72;5015583;23;20550;-92
2023/01/09 03:11:27;;;;;;;1.35;1.17;;;;;;;9.78;98.76;96427.16;5014204;23;21096;-91
2023/01/09 03:13:33;;;;;;;1.70;1.20;;;;;;;9.77;99.07;96428.94;5015254;23;20206;-92
2023/01/09 03:15:38;;;;;;;1.23;0.87;;;;;;;9.77;98.87;96433.31;4990547;23;21207;-92
2023/01/09 03:17:45;;;;;;;1.50;1.10;;;;;;;9.74;98.55;96442.25;5014883;23;20636;-92
2023/01/09 03:19:50;;;;;;;1.85;1.02;;;;;;;9.73;98.10;96445.81;5041160;23;20168;-93
2023/01/09 03:21:55;;;;;;;1.65;0.90;;;;;;;9.67;98.43;96455.97;5014684;23;20212;-91
2023/01/09 03:23:59;;;;;;;1.55;1.00;;;;;;;9.58;99.19;96460.22;5015432;23;20178;-92
2023/01/09 03:26:02;;;;;;;1.10;0.80;;;;;;;9.48;98.77;96454.19;5014875;23;20246;-92
2023/01/09 03:28:07;;;;;;;1.27;0.82;;;;;;;9.43;99.33;96460.78;5040030;23;21127;-92
2023/01/09 03:30:11;;;;;;;1.65;0.80;;;;;;;9.38;99.80;96473.34;5039395;23;20184;-92
2023/01/09 03:32:15;;;;;;;1.13;0.80;;;;;;;9.28;100.00;96464.75;5015303;23;20203;-92
2023/01/09 03:34:19;;;;;;;1.30;0.88;;;;;;;9.27;100.00;96462.28;5038072;23;20557;-91
2023/01/09 03:36:23;;;;;;;1.90;0.70;;;;;;;9.27;100.00;96462.28;5038704;23;20634;-92
2023/01/09 03:38:26;;;;;;;1.10;0.85;;;;;;;9.30;99.78;96456.81;5015605;23;20580;-91
2023/01/09 03:40:29;;;;;;;1.87;0.73;;;;;;;9.28;99.97;96462.16;5040195;23;20187;-90
2023/01/09 03:42:32;;;;;;;1.20;0.70;;;;;;;9.27;100.00;96468.28;5015623;23;20612;-92
2023/01/09 03:44:35;;;;;;;1.55;0.70;;;;;;;9.20;100.00;96474.19;5040452;23;20292;-91
2023/01/09 03:46:38;;;;;;;1.30;0.80;;;;;;;9.17;100.00;96467.50;4991009;23;20181;-92
2023/01/09 03:48:41;;;;;;;1.00;0.68;;;;;;;9.17;100.00;96475.28;5014869;23;20177;-92
2023/01/09 03:50:48;;;;;;;1.10;0.65;;;;;;;9.13;100.00;96488.69;4990902;23;20185;-91
2023/01/09 03:52:51;;;;;;;1.35;0.70;;;;;;;9.11;100.00;96495.78;5037805;23;20181;-91
2023/01/09 03:54:54;;;;;;;0.95;0.60;;;;;;;9.06;100.00;96498.78;5014512;23;20180;-91
2023/01/09 03:56:57;;;;;;;1.30;0.70;;;;;;;9.00;100.00;96501.94;5015226;23;20180;-91
2023/01/09 03:59:00;;;;;;;3.42;0.70;;;;;;;8.99;100.00;96504.66;4991663;23;20189;-91
2023/01/09 04:01:08;;;;;;;0.98;0.60;;;;;;;8.96;100.00;96513.56;5014851;23;20188;-91
2023/01/09 04:03:11;;;;;;;1.60;0.60;;;;;;;8.91;100.00;96522.72;5039999;23;20176;-91
2023/01/09 04:05:15;;;;;;;0.90;0.52;;;;;;;8.94;100.00;96536.28;5022998;23;20260;-90
2023/01/09 04:07:20;;;;;;;1.15;0.60;;;;;;;8.93;100.00;96544.22;4991021;23;20186;-91
2023/01/09 04:09:23;;;;;;;1.52;1.10;;;;;;;8.95;100.00;96556.13;5014288;23;20189;-91
2023/01/09 04:11:26;;;;;;;3.05;2.22;;;;;;;8.93;100.00;96559.81;5016080;23;20673;-90
2023/01/09 04:13:29;;;;;;;1.45;0.95;;;;;;;8.66;100.00;96564.78;5013987;23;20201;-89
2023/01/09 04:15:32;;;;;;;2.70;0.70;;;;;;;8.64;100.00;96584.03;5014707;23;20580;-91
2023/01/09 04:17:35;;;;;;;1.67;0.60;;;;;;;8.65;100.00;96593.50;5012196;23;20589;-90
2023/01/09 04:19:38;;;;;;;1.45;0.47;;;;;;;8.67;100.00;96613.19;5014755;23;20188;-90
2023/01/09 04:21:41;;;;;;;0.77;0.32;;;;;;;8.64;100.00;96610.03;5015008;23;20181;-91
2023/01/09 04:23:46;;;;;;;1.05;0.40;;;;;;;8.57;99.42;96619.31;5014022;23;20185;-90
2023/01/09 04:25:49;;;;;;;0.63;0.30;;;;;;;8.55;98.95;96622.03;5015871;23;20206;-90
2023/01/09 04:27:52;;;;;;;0.77;0.40;;;;;;;8.57;99.70;96633.13;5014534;23;20185;-90
2023/01/09 04:29:55;;;;;;;0.70;0.28;;;;;;;8.50;97.04;96646.75;5014259;23;20300;-91
2023/01/09 04:31:58;;;;;;;0.82;0.40;;;;;;;8.47;97.66;96645.22;5013977;23;20179;-90
2023/01/09 04:34:01;;;;;;;0.70;0.40;;;;;;;8.48;98.89;96649.47;4991640;23;20289;-90
2023/01/09 04:36:04;;;;;;;0.80;0.40;;;;;;;8.51;97.92;96657.00;5014910;23;20181;-91
2023/01/09 04:38:07;;;;;;;1.85;0.40;;;;;;;8.48;97.51;96659.84;5015696;23;20187;-92
2023/01/09 04:40:13;;;;;;;0.80;0.40;;;;;;;8.45;96.73;96652.31;5015966;23;20185;-91
2023/01/09 04:42:16;;;;;;;1.60;0.30;;;;;;;8.39;94.82;96667.59;5015050;23;20629;-92
2023/01/09 04:44:20;;;;;;;0.77;0.30;;;;;;;8.39;95.82;96677.13;5015166;23;20180;-92
2023/01/09 04:46:24;;;;;;;0.80;0.40;;;;;;;8.38;95.41;96665.94;5014611;23;20190;-91
2023/01/09 04:48:27;;;;;;;0.65;0.30;;;;;;;8.38;96.46;96680.72;5015898;23;20241;-90
2023/01/09 04:50:30;;;;;;;1.45;0.43;;;;;;;8.39;96.04;96693.56;4990645;23;20194;-90
2023/01/09 04:52:33;;;;;;;1.08;0.43;;;;;;;8.47;96.92;96694.56;4989839;23;20213;-92
2023/01/09 04:54:38;;;;;;;0.70;0.40;;;;;;;8.45;95.30;96686.09;5015295;23;20201;-92
2023/01/09 04:56:43;;;;;;;2.20;0.30;;;;;;;8.41;94.82;96690.84;5014613;23;20185;-91
2023/01/09 04:58:46;;;;;;;1.50;0.40;;;;;;;8.39;95.05;96693.56;5014937;23;20205;-90
2023/01/09 05:00:49;;;;;;;2.50;0.60;;;;;;;8.39;94.94;96698.75;5014600;23;20181;-90
2023/01/09 05:02:52;;;;;;;0.80;0.40;;;;;;;8.38;95.12;96699.69;5015771;23;20182;-91
2023/01/09 05:04:55;;;;;;;0.95;0.40;;;;;;;8.43;95.22;96704.53;5017174;23;20201;-90
2023/01/09 05:06:58;;;;;;;3.58;0.47;;;;;;;8.44;95.54;96707.81;5016601;23;20177;-90
2023/01/09 05:09:01;;;;;;;0.80;0.50;;;;;;;8.48;95.48;96701.41;5016159;23;20184;-90
2023/01/09 05:11:05;;;;;;;0.90;0.50;;;;;;;8.44;95.20;96702.59;5016348;23;20212;-90
2023/01/09 05:13:09;;;;;;;1.20;0.50;;;;;;;8.45;94.41;96704.28;5014430;23;20246;-90
2023/01/09 05:15:12;;;;;;;1.48;0.52;;;;;;;8.49;95.01;96712.63;5037749;23;20248;-90
2023/01/09 05:17:15;;;;;;;0.70;0.40;;;;;;;8.50;94.74;96704.72;5013972;23;20637;-90
2023/01/09 05:19:19;;;;;;;1.60;0.40;;;;;;;8.60;94.53;96717.75;4989187;23;20233;-91
2023/01/09 05:21:23;;;;;;;0.80;0.30;;;;;;;8.57;94.02;96729.25;5016632;23;20181;-91
2023/01/09 05:23:26;;;;;;;1.70;0.52;;;;;;;8.56;93.55;96734.56;5015065;23;20270;-91
2023/01/09 05:25:29;;;;;;;0.90;0.40;;;;;;;8.59;93.75;96739.50;5038630;23;20318;-90
2023/01/09 05:27:32;;;;;;;0.77;0.43;;;;;;;8.60;94.78;96743.75;5016306;23;20701;-91
2023/01/09 05:29:37;;;;;;;1.35;0.85;;;;;;;8.63;93.55;96756.47;5038908;23;20176;-90
2023/01/09 05:31:40;;;;;;;0.70;0.40;;;;;;;8.63;93.66;96759.91;4990674;23;20265;-91
2023/01/09 05:33:43;;;;;;;1.40;0.50;;;;;;;8.65;93.12;96762.41;5015370;23;20184;-92
2023/01/09 05:35:46;;;;;;;1.60;0.45;;;;;;;8.63;93.69;96765.13;5015988;23;20185;-91
2023/01/09 05:37:49;;;;;;;1.52;0.70;;;;;;;8.66;93.31;96766.63;5015361;23;20181;-91
2023/01/09 05:39:52;;;;;;;2.17;0.40;;;;;;;8.67;93.66;96770.88;5014940;23;20672;-92
2023/01/09 05:41:55;;;;;;;1.20;0.55;;;;;;;8.66;93.09;96764.03;5015554;23;20185;-91
2023/01/09 05:43:58;;;;;;;1.10;0.43;;;;;;;8.70;92.97;96765.44;5015038;23;20177;-92
2023/01/09 05:46:03;;;;;;;2.67;0.55;;;;;;;8.70;92.27;96770.63;5011333;23;20178;-90
2023/01/09 05:48:06;;;;;;;1.65;0.50;;;;;;;8.77;91.95;96774.38;5014945;23;20365;-92
2023/01/09 05:50:11;;;;;;;1.90;0.50;;;;;;;8.62;91.30;96780.84;4991618;23;20601;-92
2023/01/09 05:52:14;;;;;;;1.65;0.70;;;;;;;8.60;90.65;96791.34;5016439;23;20181;-92
2023/01/09 05:54:17;;;;;;;1.88;0.50;;;;;;;8.52;91.61;96790.31;5016293;23;20202;-91
2023/01/09 05:56:20;;;;;;;1.23;0.50;;;;;;;8.53;91.30;96804.97;5018196;23;20189;-92
2023/01/09 05:58:23;;;;;;;1.15;0.60;;;;;;;8.51;91.71;96807.69;5017094;23;20202;-91
2023/01/09 06:00:26;;;;;;;0.90;0.50;;;;;;;8.46;92.15;96815.03;5016145;23;20229;-92
2023/01/09 06:02:30;;;;;;;1.70;0.90;;;;;;;8.37;91.08;96814.09;4993684;23;20289;-92
2023/01/09 06:04:33;;;;;;;3.08;0.80;;;;;;;8.26;90.80;96804.56;5017754;23;20633;-93
2023/01/09 06:06:36;;;;;;;2.65;1.02;;;;;;;8.16;91.61;96805.44;5018702;23;20260;-93
2023/01/09 06:08:39;;;;;;;1.42;0.70;;;;;;;8.19;92.50;96805.19;4994431;23;20206;-92
2023/01/09 06:10:42;;;;;;;1.85;0.50;;;;;;;8.16;91.71;96813.22;4992925;23;20189;-92
2023/01/09 06:12:47;;;;;;;2.22;0.80;;;;;;;8.16;91.68;96810.63;4993131;23;20187;-91
2023/01/09 06:14:50;;;;;;;1.33;0.80;;;;;;;8.15;91.73;96815.00;5016731;23;20228;-91
2023/01/09 06:16:53;;;;;;;1.40;0.93;;;;;;;8.04;91.14;96814.16;4992881;23;20641;-91
2023/01/09 06:18:57;;;;;;;2.20;1.40;;;;;;;7.88;91.79;96816.31;4992282;23;20180;-92
2023/01/09 06:21:00;;;;;;;2.38;1.30;;;;;;;7.80;92.72;96816.06;5016901;23;20181;-92
2023/01/09 06:23:03;;;;;;;2.65;0.90;;;;;;;7.72;91.55;96817.63;5017283;23;20182;-91
2023/01/09 06:25:07;;;;;;;1.50;0.80;;;;;;;7.69;92.36;96823.03;4992836;23;20182;-92
2023/01/09 06:27:11;;;;;;;1.80;0.90;;;;;;;7.69;92.42;96820.44;5016218;23;20181;-91
2023/01/09 06:29:15;;;;;;;2.90;0.90;;;;;;;7.72;92.15;96822.81;4992341;23;20181;-91
2023/01/09 06:31:18;;;;;;;1.65;0.70;;;;;;;7.75;91.04;96819.97;4993171;23;20174;-91
2023/01/09 06:33:21;;;;;;;5.50;0.82;;;;;;;7.76;92.11;96819.03;5016260;23;20187;-91
2023/01/09 06:35:26;;;;;;;1.40;0.80;;;;;;;7.80;91.47;96826.44;4992453;23;20206;-90
2023/01/09 06:37:29;;;;;;;3.00;0.98;;;;;;;7.83;91.91;96825.38;5016548;23;20593;-91
2023/01/09 06:39:32;;;;;;;2.00;0.85;;;;;;;7.85;90.51;96831.28;4993019;23;20174;-91
2023/01/09 06:41:36;;;;;;;2.03;1.13;;;;;;;7.86;90.98;96843.31;5040450;23;20181;-90
2023/01/09 06:43:39;;;;;;;1.95;0.80;;;;;;;7.87;90.71;96842.38;5016475;23;20202;-91
2023/01/09 06:45:43;;;;;;;3.15;0.90;;;;;;;7.92;91.34;96848.03;4992689;23;20202;-93
2023/01/09 06:47:48;;;;;;;3.20;0.95;;;;;;;7.95;89.81;96850.38;5016523;23;20641;-91
2023/01/09 06:49:52;;;;;;;2.33;0.70;;;;;;;8.00;89.94;96856.88;5015231;23;20226;-92
2023/01/09 06:51:56;;;;;;;3.50;1.00;;;;;;;8.06;89.77;96848.63;5017016;23;20974;-91
2023/01/09 06:53:59;;;;;;;3.50;1.20;;;;;;;8.08;89.56;96860.50;5015564;23;20627;-92
2023/01/09 06:56:02;;;;;;;3.38;1.35;;;;;;;8.04;90.28;96853.94;5015523;23;20690;-94
2023/01/09 06:58:05;;;;;;;1.65;0.80;;;;;;;8.00;90.12;96852.50;5017744;23;20594;-91
2023/01/09 07:00:09;;;;;;;2.90;0.90;;;;;;;8.02;90.76;96844.59;4992890;23;20233;-91
2023/01/09 07:02:18;;;;;;;2.47;0.70;;;;;;;8.08;89.73;96842.34;5040741;23;20600;-93
2023/01/09 07:04:21;;;;;;;1.50;0.73;;;;;;;8.12;90.49;96841.19;4992437;23;20201;-91
2023/01/09 07:06:25;;;;;;;1.10;0.70;;;;;;;8.17;90.23;96846.03;5017129;23;20261;-92
2023/01/09 07:08:29;;;;;;;3.90;1.50;;;;;;;8.20;90.75;96849.19;5016505;23;20198;-93
2023/01/09 07:10:32;;;;;;;4.55;1.20;;;;;;;8.20;89.81;96849.19;5016223;23;20190;-91
2023/01/09 07:12:35;;;;;;;1.30;0.70;;;;;;;8.19;89.38;96838.94;4993160;23;20764;-91
2023/01/09 07:14:38;;;;;;;2.72;0.90;;;;;;;8.19;88.19;96851.91;5016499;23;20185;-91
2023/01/09 07:16:41;;;;;;;1.52;0.95;;;;;;;8.21;87.80;96855.22;5016176;23;20216;-91
2023/01/09 07:18:44;;;;;;;1.90;1.00;;;;;;;8.16;87.94;96853.00;4991747;23;20257;-92
2023/01/09 07:20:48;;;;;;;1.60;1.17;;;;;;;8.11;87.96;96849.06;5039652;23;20246;-90
2023/01/09 07:22:51;;;;;;;1.75;0.90;;;;;;;8.10;88.81;96858.66;5039208;23;20208;-94
2023/01/09 07:24:55;;;;;;;2.97;1.20;;;;;;;8.10;87.76;96865.59;4993738;23;20210;-91
2023/01/09 07:26:59;;;;;;;1.60;0.95;;;;;;;8.14;88.30;96865.25;5041200;23;20696;-92
2023/01/09 07:29:02;;;;;;;2.10;1.05;;;;;;;8.19;89.29;96876.09;4990134;23;20233;-93
2023/01/09 07:31:06;;;;;;;1.50;1.05;;;;;;;8.23;88.77;96877.53;5018554;23;20251;-91
2023/01/09 07:33:09;;;;;;;1.38;0.77;;;;;;;8.23;87.96;96872.34;5015677;23;20192;-93
2023/01/09 07:35:12;;;;;;;4.50;2.22;;;;;;;8.26;87.47;96882.47;5038698;23;20506;-92
2023/01/09 07:37:15;;;;;;;4.05;1.73;;;;;;;8.21;87.79;96876.84;5014810;23;20189;-91
2023/01/09 07:39:19;;;;;;;10.77;4.90;;;;;;;8.14;87.07;96878.25;5015683;23;20200;-91
2023/01/09 07:41:23;;;;;;;2.75;1.00;;;;;;;8.03;88.10;96878.22;5015852;23;20212;-93
2023/01/09 07:43:26;;;;;;;2.13;1.00;;;;;;;7.90;88.92;96881.91;5015878;23;20693;-90
2023/01/09 07:45:29;;;;;;;3.75;0.90;;;;;;;7.82;88.79;96883.41;5015404;23;20182;-90
2023/01/09 07:47:33;;;;;;;1.85;0.70;;;;;;;7.76;88.91;96883.91;5015213;23;20309;-90
2023/01/09 07:49:36;;;;;;;2.03;0.80;;;;;;;7.77;89.32;96880.34;5017419;23;20191;-91
2023/01/09 07:51:41;;;;;;;1.90;0.80;;;;;;;7.81;89.04;96886.97;5016859;23;20181;-92
2023/01/09 07:53:45;;;;;;;3.38;0.90;;;;;;;7.85;90.24;96888.38;5016343;23;20181;-91
2023/01/09 07:55:48;;;;;;;1.50;0.93;;;;;;;7.92;90.18;96889.56;4992528;23;20225;-92
2023/01/09 07:57:52;;;;;;;1.55;0.80;;;;;;;7.99;89.75;96896.75;5017330;23;20177;-92
2023/01/09 07:59:55;;;;;;;1.95;0.60;;;;;;;8.07;88.09;96895.22;5040754;23;20184;-93
2023/01/09 08:01:58;;;;;;;3.70;1.27;;;;;;;8.10;88.08;96900.19;5017536;23;20200;-94
2023/01/09 08:04:01;;;;;;;2.58;0.80;;;;;;;8.11;89.07;96912.25;4993661;23;20238;-92
2023/01/09 08:06:05;;;;;;;2.55;0.80;;;;;;;8.14;87.34;96908.59;5018005;23;20524;-93
2023/01/09 08:08:08;;;;;;;3.08;0.80;;;;;;;8.21;87.58;96920.13;4994233;23;20178;-92
2023/01/09 08:10:11;;;;;;;1.85;0.60;;;;;;;8.26;87.98;96916.25;5015137;23;20181;-89
2023/01/09 08:12:14;;;;;;;1.88;0.80;;;;;;;8.27;85.94;96920.50;4991881;23;20193;-90
2023/01/09 08:14:19;;;;;;;3.38;1.50;;;;;;;8.29;85.95;96910.00;5016057;23;20251;-90
2023/01/09 08:16:22;;;;;;;1.50;0.73;;;;;;;8.33;86.39;96912.22;5014618;23;20208;-91
2023/01/09 08:18:25;;;;;;;1.45;0.70;;;;;;;8.31;85.99;96914.09;4990590;23;20202;-89
2023/01/09 08:20:28;;;;;;;2.00;0.80;;;;;;;8.29;86.00;96913.41;5038870;23;20239;-89
2023/01/09 08:22:31;;;;;;;7.80;4.20;;;;;;;8.35;87.01;96918.13;4991756;23;20177;-90
2023/01/09 08:24:35;;;;;;;1.90;1.20;;;;;;;8.36;85.88;96916.34;5015352;23;20658;-90
2023/01/09 08:26:38;;;;;;;4.03;1.05;;;;;;;8.48;85.98;96921.41;5037906;23;20316;-92
2023/01/09 08:28:42;;;;;;;2.63;0.85;;;;;;;8.76;86.85;96924.28;5015553;23;20890;-91
2023/01/09 08:30:46;;;;;;;4.60;3.22;;;;;;;8.97;87.64;96930.38;5040693;23;20180;-92
2023/01/09 08:32:50;;;;;;;3.30;1.90;;;;;;;9.07;86.46;96932.09;5015334;23;20502;-90
2023/01/09 08:34:53;;;;;;;5.80;1.75;;;;;;;9.27;85.23;96928.72;5014215;23;20183;-91
2023/01/09 08:36:57;;;;;;;2.50;1.02;;;;;;;9.36;85.50;96930.56;5035896;23;20295;-91
2023/01/09 08:39:00;;;;;;;2.50;0.80;;;;;;;9.38;85.01;96932.09;5037004;23;20184;-91
2023/01/09 08:47:04;;;;;;;2.85;0.95;;;;;;;9.44;84.30;96935.94;4989227;23;20261;-92
2023/01/09 08:48:19;;;;;;;1.27;0.68;;;;;;;9.49;84.05;96934.63;5013016;23;20199;-92
2023/01/09 08:50:22;;;;;;;3.63;1.20;;;;;;;9.55;83.34;96928.09;5013184;23;20237;-92
2023/01/09 08:52:25;;;;;;;3.17;1.10;;;;;;;9.61;83.33;96927.59;5013678;23;20845;-92
2023/01/09 08:54:28;;;;;;;2.65;0.80;;;;;;;9.61;83.25;96927.59;5014718;23;20188;-91
2023/01/09 08:56:33;;;;;;;2.40;1.00;;;;;;;9.51;82.75;96916.28;5015230;23;20205;-92
2023/01/09 08:58:36;;;;;;;2.30;1.17;;;;;;;9.53;83.42;96916.97;5015652;23;20177;-92
2023/01/09 09:00:39;;;;;;;3.90;0.98;;;;;;;9.53;83.57;96911.78;5038664;23;20188;-90
2023/01/09 09:02:43;;;;;;;2.15;1.00;;;;;;;9.43;83.41;96914.31;5040606;23;20319;-93
2023/01/09 09:04:50;;;;;;;2.72;0.90;;;;;;;9.48;83.96;96914.75;5017140;23;20223;-91
2023/01/09 09:06:53;;;;;;;2.03;0.70;;;;;;;9.59;82.44;96908.66;5017556;23;20208;-92
2023/01/09 09:09:01;;;;;;;2.08;1.05;;;;;;;9.50;82.95;96904.22;5015518;23;20209;-93
2023/01/09 09:11:04;;;;;;;3.10;1.00;;;;;;;9.48;82.75;96906.13;5016194;23;20180;-93
2023/01/09 09:13:07;;;;;;;1.60;1.00;;;;;;;9.58;82.45;96907.03;5016430;23;20634;-91
2023/01/09 09:15:15;;;;;;;3.40;1.08;;;;;;;9.65;82.74;96913.34;4992288;23;20193;-92
2023/01/09 09:17:18;;;;;;;1.40;0.80;;;;;;;9.82;82.78;96911.00;5039613;23;20196;-92
2023/01/09 09:19:22;;;;;;;3.20;1.10;;;;;;;9.86;81.98;96902.81;5015753;23;21166;-91
2023/01/09 09:21:25;;;;;;;3.83;1.13;;;;;;;9.90;81.24;96906.78;5015504;23;20195;-92
2023/01/09 09:23:28;;;;;;;3.95;1.30;;;;;;;9.92;81.55;96896.25;4993422;23;20178;-93
2023/01/09 09:25:31;;;;;;;3.80;1.67;;;;;;;9.82;81.22;96898.00;4993252;23;20178;-92
2023/01/09 09:27:36;;;;;;;3.92;1.65;;;;;;;9.93;81.17;96903.94;5015785;23;20229;-92
2023/01/09 09:29:39;;;;;;;3.30;1.50;;;;;;;10.06;82.37;96901.97;4994724;23;20183;-90
2023/01/09 09:31:42;;;;;;;3.10;1.20;;;;;;;10.10;80.11;96908.56;5018353;23;20185;-93
2023/01/09 09:33:46;;;;;;;2.80;2.03;;;;;;;10.10;81.06;96913.78;5017689;23;20181;-93
2023/01/09 09:35:50;;;;;;;3.85;1.77;;;;;;;10.13;80.15;96910.91;5017288;23;20177;-90
2023/01/09 09:37:55;;;;;;;2.50;1.30;;;;;;;9.83;80.42;96906.63;5041095;23;20247;-93
2023/01/09 09:39:58;;;;;;;5.78;1.30;;;;;;;9.84;80.51;96904.69;5019032;23;20177;-93
2023/01/09 09:44:58;;;;;;;2.92;1.08;;;;;;;9.50;82.25;96915.47;5042261;23;20177;-93
2023/01/09 09:47:07;;;;;;;1.77;0.88;;;;;;;9.45;83.61;96916.78;5017744;23;20178;-92
2023/01/09 09:49:15;;;;;;;2.60;0.80;;;;;;;9.46;82.97;96913.25;5042430;23;20663;-92
2023/01/09 09:51:43;;;;;;;2.63;0.90;;;;;;;9.43;82.86;96919.53;5042225;23;20215;-93
2023/01/09 09:53:51;;;;;;;2.55;1.20;;;;;;;9.46;84.00;96921.06;5018271;23;20599;-91
2023/01/09 09:55:56;;;;;;;2.08;0.88;;;;;;;9.48;82.97;96921.75;5017200;23;20188;-91
2023/01/09 09:58:02;;;;;;;4.18;1.30;;;;;;;9.41;83.87;96912.78;4992512;23;20202;-93
2023/01/09 10:00:06;;;;;;;3.33;1.02;;;;;;;9.35;83.29;96920.28;5041675;23;20668;-92
2023/01/09 10:02:24;;;;;;;3.30;0.80;;;;;;;9.23;83.15;96923.88;5016539;23;20545;-94
2023/01/09 10:04:31;;;;;;;3.80;0.88;;;;;;;9.26;83.52;96919.28;5016814;23;20217;-92